sensor_id;sensor_type;location;lat;lon;timestamp;P1;durP1;ratioP1;P2;durP2;ratioP2
15936;SDS011;9163;48.818;8.976;2023-11-19T00:02:03;5.17;;;4.20;;
15936;SDS011;9163;48.818;8.976;2023-11-19T00:04:34;5.03;;;4.20;;
15936;SDS011;9163;48.818;8.976;2023-11-19T00:07:04;5.97;;;4.27;;
15936;SDS011;9163;48.818;8.976;2023-11-19T00:09:32;5.80;;;4.53;;
15936;SDS011;9163;48.818;8.976;2023-11-19T00:12:03;5.37;;;4.03;;
15936;SDS011;9163;48.818;8.976;2023-11-19T00:14:31;5.50;;;3.83;;
15936;SDS011;9163;48.818;8.976;2023-11-19T00:16:58;5.43;;;3.37;;
15936;SDS011;9163;48.818;8.976;2023-11-19T00:19:27;4.67;;;3.60;;
15936;SDS011;9163;48.818;8.976;2023-11-19T00:21:54;3.97;;;3.30;;
15936;SDS011;9163;48.818;8.976;2023-11-19T00:24:21;6.90;;;3.40;;
15936;SDS011;9163;48.818;8.976;2023-11-19T00:26:48;4.13;;;2.57;;
15936;SDS011;9163;48.818;8.976;2023-11-19T00:29:16;3.47;;;2.23;;
15936;SDS011;9163;48.818;8.976;2023-11-19T00:31:45;4.97;;;2.47;;
15936;SDS011;9163;48.818;8.976;2023-11-19T00:34:13;1.90;;;1.70;;
15936;SDS011;9163;48.818;8.976;2023-11-19T00:36:41;1.97;;;1.70;;
15936;SDS011;9163;48.818;8.976;2023-11-19T00:39:10;1.50;;;1.40;;
15936;SDS011;9163;48.818;8.976;2023-11-19T00:41:40;1.47;;;1.30;;
15936;SDS011;9163;48.818;8.976;2023-11-19T00:44:07;1.00;;;0.90;;
15936;SDS011;9163;48.818;8.976;2023-11-19T00:46:35;0.97;;;0.80;;
15936;SDS011;9163;48.818;8.976;2023-11-19T00:49:02;0.90;;;0.70;;
15936;SDS011;9163;48.818;8.976;2023-11-19T00:51:29;0.90;;;0.50;;
15936;SDS011;9163;48.818;8.976;2023-11-19T00:53:58;0.67;;;0.50;;
15936;SDS011;9163;48.818;8.976;2023-11-19T00:56:26;1.27;;;0.50;;
15936;SDS011;9163;48.818;8.976;2023-11-19T00:58:53;0.50;;;0.30;;
15936;SDS011;9163;48.818;8.976;2023-11-19T01:01:21;0.90;;;0.40;;
15936;SDS011;9163;48.818;8.976;2023-11-19T01:03:48;0.20;;;0.20;;
15936;SDS011;9163;48.818;8.976;2023-11-19T01:06:26;0.53;;;0.30;;
15936;SDS011;9163;48.818;8.976;2023-11-19T01:08:53;0.60;;;0.27;;
15936;SDS011;9163;48.818;8.976;2023-11-19T01:11:24;0.77;;;0.30;;
15936;SDS011;9163;48.818;8.976;2023-11-19T01:13:51;0.47;;;0.27;;
15936;SDS011;9163;48.818;8.976;2023-11-19T01:16:19;0.70;;;0.23;;
15936;SDS011;9163;48.818;8.976;2023-11-19T01:18:47;0.20;;;0.20;;
15936;SDS011;9163;48.818;8.976;2023-11-19T01:21:15;0.20;;;0.20;;
15936;SDS011;9163;48.818;8.976;2023-11-19T01:23:42;0.30;;;0.20;;
15936;SDS011;9163;48.818;8.976;2023-11-19T01:26:10;0.43;;;0.20;;
15936;SDS011;9163;48.818;8.976;2023-11-19T01:28:39;0.10;;;0.10;;
15936;SDS011;9163;48.818;8.976;2023-11-19T01:31:10;0.20;;;0.20;;
15936;SDS011;9163;48.818;8.976;2023-11-19T01:33:38;2.20;;;0.10;;
15936;SDS011;9163;48.818;8.976;2023-11-19T01:36:07;0.20;;;0.20;;
15936;SDS011;9163;48.818;8.976;2023-11-19T01:38:35;0.30;;;0.10;;
15936;SDS011;9163;48.818;8.976;2023-11-19T01:41:03;0.40;;;0.20;;
15936;SDS011;9163;48.818;8.976;2023-11-19T01:43:31;0.10;;;0.10;;
15936;SDS011;9163;48.818;8.976;2023-11-19T01:46:04;0.23;;;0.20;;
15936;SDS011;9163;48.818;8.976;2023-11-19T01:48:32;0.10;;;0.10;;
15936;SDS011;9163;48.818;8.976;2023-11-19T01:51:01;0.10;;;0.00;;
15936;SDS011;9163;48.818;8.976;2023-11-19T01:53:30;0.20;;;0.10;;
15936;SDS011;9163;48.818;8.976;2023-11-19T01:55:58;0.67;;;0.20;;
15936;SDS011;9163;48.818;8.976;2023-11-19T01:58:26;0.30;;;0.20;;
15936;SDS011;9163;48.818;8.976;2023-11-19T02:00:55;0.43;;;0.10;;
15936;SDS011;9163;48.818;8.976;2023-11-19T02:03:25;0.20;;;0.17;;
15936;SDS011;9163;48.818;8.976;2023-11-19T02:05:54;0.30;;;0.20;;
15936;SDS011;9163;48.818;8.976;2023-11-19T02:08:22;0.10;;;0.10;;
15936;SDS011;9163;48.818;8.976;2023-11-19T02:10:49;0.10;;;0.10;;
15936;SDS011;9163;48.818;8.976;2023-11-19T02:13:17;0.07;;;0.07;;
15936;SDS011;9163;48.818;8.976;2023-11-19T02:15:45;0.37;;;0.10;;
15936;SDS011;9163;48.818;8.976;2023-11-19T02:18:21;0.20;;;0.20;;
15936;SDS011;9163;48.818;8.976;2023-11-19T02:20:52;0.73;;;0.10;;
15936;SDS011;9163;48.818;8.976;2023-11-19T02:23:20;0.13;;;0.10;;
15936;SDS011;9163;48.818;8.976;2023-11-19T02:25:51;0.40;;;0.20;;
15936;SDS011;9163;48.818;8.976;2023-11-19T02:28:28;0.10;;;0.10;;
15936;SDS011;9163;48.818;8.976;2023-11-19T02:30:55;0.10;;;0.10;;
15936;SDS011;9163;48.818;8.976;2023-11-19T02:33:22;0.27;;;0.20;;
15936;SDS011;9163;48.818;8.976;2023-11-19T02:35:50;0.10;;;0.10;;
15936;SDS011;9163;48.818;8.976;2023-11-19T02:38:17;0.10;;;0.07;;
15936;SDS011;9163;48.818;8.976;2023-11-19T02:40:46;0.10;;;0.10;;
15936;SDS011;9163;48.818;8.976;2023-11-19T02:43:13;0.10;;;0.10;;
15936;SDS011;9163;48.818;8.976;2023-11-19T02:45:41;0.73;;;0.10;;
15936;SDS011;9163;48.818;8.976;2023-11-19T02:48:11;0.10;;;0.10;;
15936;SDS011;9163;48.818;8.976;2023-11-19T02:50:39;1.47;;;0.20;;
15936;SDS011;9163;48.818;8.976;2023-11-19T02:53:06;0.10;;;0.10;;
15936;SDS011;9163;48.818;8.976;2023-11-19T02:55:34;0.53;;;0.10;;
15936;SDS011;9163;48.818;8.976;2023-11-19T02:58:03;0.60;;;0.10;;
15936;SDS011;9163;48.818;8.976;2023-11-19T03:00:39;1.13;;;0.20;;
15936;SDS011;9163;48.818;8.976;2023-11-19T03:03:15;0.17;;;0.10;;
15936;SDS011;9163;48.818;8.976;2023-11-19T03:05:46;2.23;;;0.10;;
15936;SDS011;9163;48.818;8.976;2023-11-19T03:08:14;0.63;;;0.10;;
15936;SDS011;9163;48.818;8.976;2023-11-19T03:10:42;0.53;;;0.10;;
15936;SDS011;9163;48.818;8.976;2023-11-19T03:13:11;0.30;;;0.17;;
15936;SDS011;9163;48.818;8.976;2023-11-19T03:15:40;0.00;;;0.00;;
15936;SDS011;9163;48.818;8.976;2023-11-19T03:18:07;0.37;;;0.20;;
15936;SDS011;9163;48.818;8.976;2023-11-19T03:20:36;1.07;;;0.20;;
15936;SDS011;9163;48.818;8.976;2023-11-19T03:23:03;0.13;;;0.10;;
15936;SDS011;9163;48.818;8.976;2023-11-19T03:25:31;0.47;;;0.10;;
15936;SDS011;9163;48.818;8.976;2023-11-19T03:27:59;0.50;;;0.30;;
15936;SDS011;9163;48.818;8.976;2023-11-19T03:30:28;0.63;;;0.10;;
15936;SDS011;9163;48.818;8.976;2023-11-19T03:32:55;1.00;;;0.20;;
15936;SDS011;9163;48.818;8.976;2023-11-19T03:35:23;0.20;;;0.10;;
15936;SDS011;9163;48.818;8.976;2023-11-19T03:37:52;0.50;;;0.10;;
15936;SDS011;9163;48.818;8.976;2023-11-19T03:40:19;0.30;;;0.20;;
15936;SDS011;9163;48.818;8.976;2023-11-19T03:42:46;0.10;;;0.10;;
15936;SDS011;9163;48.818;8.976;2023-11-19T03:45:13;0.07;;;0.07;;
15936;SDS011;9163;48.818;8.976;2023-11-19T03:47:41;0.93;;;0.10;;
15936;SDS011;9163;48.818;8.976;2023-11-19T03:50:08;0.47;;;0.20;;
15936;SDS011;9163;48.818;8.976;2023-11-19T03:52:36;0.87;;;0.10;;
15936;SDS011;9163;48.818;8.976;2023-11-19T03:55:05;0.20;;;0.10;;
15936;SDS011;9163;48.818;8.976;2023-11-19T03:57:34;0.23;;;0.10;;
15936;SDS011;9163;48.818;8.976;2023-11-19T04:00:01;0.20;;;0.10;;
15936;SDS011;9163;48.818;8.976;2023-11-19T04:02:33;0.83;;;0.13;;
15936;SDS011;9163;48.818;8.976;2023-11-19T04:05:01;0.10;;;0.10;;
15936;SDS011;9163;48.818;8.976;2023-11-19T04:07:28;0.20;;;0.03;;
15936;SDS011;9163;48.818;8.976;2023-11-19T04:09:55;0.00;;;0.00;;
15936;SDS011;9163;48.818;8.976;2023-11-19T04:12:24;0.03;;;0.00;;
15936;SDS011;9163;48.818;8.976;2023-11-19T04:14:51;1.03;;;0.10;;
15936;SDS011;9163;48.818;8.976;2023-11-19T04:17:19;0.30;;;0.10;;
15936;SDS011;9163;48.818;8.976;2023-11-19T04:19:46;0.30;;;0.10;;
15936;SDS011;9163;48.818;8.976;2023-11-19T04:22:13;1.33;;;0.10;;
15936;SDS011;9163;48.818;8.976;2023-11-19T04:24:40;0.33;;;0.20;;
15936;SDS011;9163;48.818;8.976;2023-11-19T04:27:09;0.67;;;0.10;;
15936;SDS011;9163;48.818;8.976;2023-11-19T04:29:38;0.63;;;0.03;;
15936;SDS011;9163;48.818;8.976;2023-11-19T04:32:05;0.30;;;0.10;;
15936;SDS011;9163;48.818;8.976;2023-11-19T04:34:33;0.63;;;0.10;;
15936;SDS011;9163;48.818;8.976;2023-11-19T04:37:01;1.13;;;0.10;;
15936;SDS011;9163;48.818;8.976;2023-11-19T04:39:29;0.20;;;0.10;;
15936;SDS011;9163;48.818;8.976;2023-11-19T04:41:56;2.40;;;0.20;;
15936;SDS011;9163;48.818;8.976;2023-11-19T04:44:23;0.17;;;0.10;;
15936;SDS011;9163;48.818;8.976;2023-11-19T04:46:52;0.10;;;0.10;;
15936;SDS011;9163;48.818;8.976;2023-11-19T04:49:19;0.30;;;0.20;;
15936;SDS011;9163;48.818;8.976;2023-11-19T04:51:46;1.17;;;0.10;;
15936;SDS011;9163;48.818;8.976;2023-11-19T04:54:13;2.33;;;0.20;;
15936;SDS011;9163;48.818;8.976;2023-11-19T04:56:40;2.10;;;0.17;;
15936;SDS011;9163;48.818;8.976;2023-11-19T04:59:12;0.10;;;0.10;;
15936;SDS011;9163;48.818;8.976;2023-11-19T05:01:39;0.40;;;0.20;;
15936;SDS011;9163;48.818;8.976;2023-11-19T05:04:08;0.17;;;0.10;;
15936;SDS011;9163;48.818;8.976;2023-11-19T05:06:35;1.03;;;0.10;;
15936;SDS011;9163;48.818;8.976;2023-11-19T05:09:03;0.10;;;0.10;;
15936;SDS011;9163;48.818;8.976;2023-11-19T05:11:33;0.30;;;0.10;;
15936;SDS011;9163;48.818;8.976;2023-11-19T05:14:02;0.17;;;0.10;;
15936;SDS011;9163;48.818;8.976;2023-11-19T05:16:30;0.60;;;0.10;;
15936;SDS011;9163;48.818;8.976;2023-11-19T05:18:58;1.70;;;0.20;;
15936;SDS011;9163;48.818;8.976;2023-11-19T05:21:26;0.10;;;0.10;;
15936;SDS011;9163;48.818;8.976;2023-11-19T05:23:53;0.20;;;0.20;;
15936;SDS011;9163;48.818;8.976;2023-11-19T05:26:22;0.20;;;0.20;;
15936;SDS011;9163;48.818;8.976;2023-11-19T05:28:50;0.47;;;0.20;;
15936;SDS011;9163;48.818;8.976;2023-11-19T05:31:18;0.23;;;0.20;;
15936;SDS011;9163;48.818;8.976;2023-11-19T05:33:45;0.80;;;0.30;;
15936;SDS011;9163;48.818;8.976;2023-11-19T05:36:12;1.30;;;0.20;;
15936;SDS011;9163;48.818;8.976;2023-11-19T05:38:41;0.33;;;0.20;;
15936;SDS011;9163;48.818;8.976;2023-11-19T05:41:10;0.30;;;0.30;;
15936;SDS011;9163;48.818;8.976;2023-11-19T05:43:37;0.43;;;0.20;;
15936;SDS011;9163;48.818;8.976;2023-11-19T05:46:06;0.23;;;0.20;;
15936;SDS011;9163;48.818;8.976;2023-11-19T05:48:34;0.43;;;0.30;;
15936;SDS011;9163;48.818;8.976;2023-11-19T05:51:01;0.30;;;0.20;;
15936;SDS011;9163;48.818;8.976;2023-11-19T05:53:28;0.83;;;0.20;;
15936;SDS011;9163;48.818;8.976;2023-11-19T05:55:57;0.20;;;0.20;;
15936;SDS011;9163;48.818;8.976;2023-11-19T05:58:29;0.83;;;0.20;;
15936;SDS011;9163;48.818;8.976;2023-11-19T06:00:58;0.77;;;0.30;;
15936;SDS011;9163;48.818;8.976;2023-11-19T06:03:27;0.83;;;0.20;;
15936;SDS011;9163;48.818;8.976;2023-11-19T06:05:54;0.83;;;0.20;;
15936;SDS011;9163;48.818;8.976;2023-11-19T06:08:21;0.67;;;0.30;;
15936;SDS011;9163;48.818;8.976;2023-11-19T06:10:48;0.97;;;0.40;;
15936;SDS011;9163;48.818;8.976;2023-11-19T06:13:18;0.63;;;0.40;;
15936;SDS011;9163;48.818;8.976;2023-11-19T06:15:45;0.70;;;0.50;;
15936;SDS011;9163;48.818;8.976;2023-11-19T06:18:12;0.80;;;0.30;;
15936;SDS011;9163;48.818;8.976;2023-11-19T06:20:40;1.20;;;0.30;;
15936;SDS011;9163;48.818;8.976;2023-11-19T06:23:07;0.33;;;0.30;;
15936;SDS011;9163;48.818;8.976;2023-11-19T06:25:35;1.03;;;0.50;;
15936;SDS011;9163;48.818;8.976;2023-11-19T06:28:02;0.93;;;0.40;;
15936;SDS011;9163;48.818;8.976;2023-11-19T06:30:31;0.37;;;0.30;;
15936;SDS011;9163;48.818;8.976;2023-11-19T06:32:59;0.20;;;0.20;;
15936;SDS011;9163;48.818;8.976;2023-11-19T06:35:26;0.87;;;0.63;;
15936;SDS011;9163;48.818;8.976;2023-11-19T06:37:55;2.97;;;0.40;;
15936;SDS011;9163;48.818;8.976;2023-11-19T06:40:22;1.03;;;0.30;;
15936;SDS011;9163;48.818;8.976;2023-11-19T06:42:50;1.03;;;0.27;;
15936;SDS011;9163;48.818;8.976;2023-11-19T06:45:18;0.70;;;0.27;;
15936;SDS011;9163;48.818;8.976;2023-11-19T06:47:47;0.43;;;0.27;;
15936;SDS011;9163;48.818;8.976;2023-11-19T06:50:15;0.40;;;0.30;;
15936;SDS011;9163;48.818;8.976;2023-11-19T06:52:42;0.60;;;0.27;;
15936;SDS011;9163;48.818;8.976;2023-11-19T06:55:10;0.40;;;0.20;;
15936;SDS011;9163;48.818;8.976;2023-11-19T06:57:37;0.30;;;0.20;;
15936;SDS011;9163;48.818;8.976;2023-11-19T07:00:05;0.20;;;0.20;;
15936;SDS011;9163;48.818;8.976;2023-11-19T07:02:34;0.70;;;0.30;;
15936;SDS011;9163;48.818;8.976;2023-11-19T07:05:02;1.00;;;0.30;;
15936;SDS011;9163;48.818;8.976;2023-11-19T07:07:30;0.47;;;0.40;;
15936;SDS011;9163;48.818;8.976;2023-11-19T07:09:58;2.03;;;0.40;;
15936;SDS011;9163;48.818;8.976;2023-11-19T07:12:25;0.80;;;0.30;;
15936;SDS011;9163;48.818;8.976;2023-11-19T07:14:53;0.67;;;0.30;;
15936;SDS011;9163;48.818;8.976;2023-11-19T07:17:21;2.37;;;0.50;;
15936;SDS011;9163;48.818;8.976;2023-11-19T07:19:49;3.70;;;2.30;;
15936;SDS011;9163;48.818;8.976;2023-11-19T07:22:18;6.67;;;3.53;;
15936;SDS011;9163;48.818;8.976;2023-11-19T07:24:45;3.17;;;1.73;;
15936;SDS011;9163;48.818;8.976;2023-11-19T07:27:12;2.10;;;1.30;;
15936;SDS011;9163;48.818;8.976;2023-11-19T07:29:39;2.27;;;0.80;;
15936;SDS011;9163;48.818;8.976;2023-11-19T07:32:07;2.00;;;0.60;;
15936;SDS011;9163;48.818;8.976;2023-11-19T07:34:34;1.87;;;0.50;;
15936;SDS011;9163;48.818;8.976;2023-11-19T07:37:01;0.50;;;0.40;;
15936;SDS011;9163;48.818;8.976;2023-11-19T07:39:30;0.30;;;0.23;;
15936;SDS011;9163;48.818;8.976;2023-11-19T07:41:57;2.27;;;0.37;;
15936;SDS011;9163;48.818;8.976;2023-11-19T07:44:24;0.40;;;0.40;;
15936;SDS011;9163;48.818;8.976;2023-11-19T07:46:51;1.43;;;0.30;;
15936;SDS011;9163;48.818;8.976;2023-11-19T07:49:19;0.53;;;0.30;;
15936;SDS011;9163;48.818;8.976;2023-11-19T07:51:47;1.13;;;0.40;;
15936;SDS011;9163;48.818;8.976;2023-11-19T07:54:14;0.30;;;0.20;;
15936;SDS011;9163;48.818;8.976;2023-11-19T07:56:42;1.47;;;0.37;;
15936;SDS011;9163;48.818;8.976;2023-11-19T07:59:10;0.47;;;0.20;;
15936;SDS011;9163;48.818;8.976;2023-11-19T08:01:37;1.00;;;0.30;;
15936;SDS011;9163;48.818;8.976;2023-11-19T08:04:04;0.67;;;0.40;;
15936;SDS011;9163;48.818;8.976;2023-11-19T08:06:31;1.13;;;0.60;;
15936;SDS011;9163;48.818;8.976;2023-11-19T08:08:59;2.20;;;0.77;;
15936;SDS011;9163;48.818;8.976;2023-11-19T08:11:26;0.60;;;0.40;;
15936;SDS011;9163;48.818;8.976;2023-11-19T08:13:54;1.17;;;0.50;;
15936;SDS011;9163;48.818;8.976;2023-11-19T08:16:22;0.97;;;0.50;;
15936;SDS011;9163;48.818;8.976;2023-11-19T08:18:49;0.70;;;0.40;;
15936;SDS011;9163;48.818;8.976;2023-11-19T08:21:16;1.03;;;0.60;;
15936;SDS011;9163;48.818;8.976;2023-11-19T08:23:43;1.80;;;0.70;;
15936;SDS011;9163;48.818;8.976;2023-11-19T08:26:10;0.60;;;0.60;;
15936;SDS011;9163;48.818;8.976;2023-11-19T08:28:38;1.33;;;0.70;;
15936;SDS011;9163;48.818;8.976;2023-11-19T08:31:06;1.13;;;0.50;;
15936;SDS011;9163;48.818;8.976;2023-11-19T08:33:33;0.70;;;0.50;;
15936;SDS011;9163;48.818;8.976;2023-11-19T08:36:01;2.00;;;0.53;;
15936;SDS011;9163;48.818;8.976;2023-11-19T08:38:29;1.07;;;0.50;;
15936;SDS011;9163;48.818;8.976;2023-11-19T08:40:56;1.47;;;0.40;;
15936;SDS011;9163;48.818;8.976;2023-11-19T08:43:25;0.80;;;0.53;;
15936;SDS011;9163;48.818;8.976;2023-11-19T08:45:52;1.30;;;0.50;;
15936;SDS011;9163;48.818;8.976;2023-11-19T08:48:21;2.30;;;0.63;;
15936;SDS011;9163;48.818;8.976;2023-11-19T08:50:48;0.90;;;0.47;;
15936;SDS011;9163;48.818;8.976;2023-11-19T08:53:15;1.27;;;0.70;;
15936;SDS011;9163;48.818;8.976;2023-11-19T08:55:43;2.83;;;0.70;;
15936;SDS011;9163;48.818;8.976;2023-11-19T08:58:10;0.90;;;0.70;;
15936;SDS011;9163;48.818;8.976;2023-11-19T09:00:37;0.97;;;0.57;;
15936;SDS011;9163;48.818;8.976;2023-11-19T09:03:04;1.03;;;0.60;;
15936;SDS011;9163;48.818;8.976;2023-11-19T09:05:33;1.67;;;0.53;;
15936;SDS011;9163;48.818;8.976;2023-11-19T09:08:00;1.90;;;1.10;;
15936;SDS011;9163;48.818;8.976;2023-11-19T09:10:27;1.37;;;1.00;;
15936;SDS011;9163;48.818;8.976;2023-11-19T09:12:55;1.53;;;0.70;;
15936;SDS011;9163;48.818;8.976;2023-11-19T09:15:22;1.77;;;0.90;;
15936;SDS011;9163;48.818;8.976;2023-11-19T09:17:49;1.77;;;0.60;;
15936;SDS011;9163;48.818;8.976;2023-11-19T09:20:16;4.40;;;0.80;;
15936;SDS011;9163;48.818;8.976;2023-11-19T09:22:45;0.97;;;0.60;;
15936;SDS011;9163;48.818;8.976;2023-11-19T09:25:12;1.40;;;0.60;;
15936;SDS011;9163;48.818;8.976;2023-11-19T09:27:42;3.50;;;0.60;;
15936;SDS011;9163;48.818;8.976;2023-11-19T09:30:10;0.73;;;0.60;;
15936;SDS011;9163;48.818;8.976;2023-11-19T09:32:38;2.10;;;0.70;;
15936;SDS011;9163;48.818;8.976;2023-11-19T09:35:05;2.57;;;0.77;;
15936;SDS011;9163;48.818;8.976;2023-11-19T09:37:33;2.73;;;0.50;;
15936;SDS011;9163;48.818;8.976;2023-11-19T09:40:02;0.77;;;0.50;;
15936;SDS011;9163;48.818;8.976;2023-11-19T09:42:30;3.20;;;0.60;;
15936;SDS011;9163;48.818;8.976;2023-11-19T09:45:06;2.03;;;0.60;;
15936;SDS011;9163;48.818;8.976;2023-11-19T09:47:40;2.20;;;0.50;;
15936;SDS011;9163;48.818;8.976;2023-11-19T09:50:09;1.77;;;0.60;;
15936;SDS011;9163;48.818;8.976;2023-11-19T09:52:40;1.77;;;0.40;;
15936;SDS011;9163;48.818;8.976;2023-11-19T09:55:10;0.80;;;0.40;;
15936;SDS011;9163;48.818;8.976;2023-11-19T09:57:38;1.07;;;0.47;;
15936;SDS011;9163;48.818;8.976;2023-11-19T10:00:06;0.60;;;0.50;;
15936;SDS011;9163;48.818;8.976;2023-11-19T10:02:35;0.87;;;0.50;;
15936;SDS011;9163;48.818;8.976;2023-11-19T10:05:04;1.47;;;0.43;;
15936;SDS011;9163;48.818;8.976;2023-11-19T10:07:33;1.47;;;0.50;;
15936;SDS011;9163;48.818;8.976;2023-11-19T10:10:01;1.80;;;0.50;;
15936;SDS011;9163;48.818;8.976;2023-11-19T10:12:31;1.50;;;0.70;;
15936;SDS011;9163;48.818;8.976;2023-11-19T10:14:59;1.00;;;0.40;;
15936;SDS011;9163;48.818;8.976;2023-11-19T10:17:29;2.40;;;0.63;;
15936;SDS011;9163;48.818;8.976;2023-11-19T10:19:59;2.23;;;0.60;;
15936;SDS011;9163;48.818;8.976;2023-11-19T10:22:28;2.70;;;0.70;;
15936;SDS011;9163;48.818;8.976;2023-11-19T10:24:55;2.40;;;0.50;;
15936;SDS011;9163;48.818;8.976;2023-11-19T10:27:23;1.17;;;0.47;;
15936;SDS011;9163;48.818;8.976;2023-11-19T10:29:52;1.03;;;0.50;;
15936;SDS011;9163;48.818;8.976;2023-11-19T10:32:20;1.67;;;0.40;;
15936;SDS011;9163;48.818;8.976;2023-11-19T10:34:47;0.77;;;0.40;;
15936;SDS011;9163;48.818;8.976;2023-11-19T10:37:26;1.77;;;0.40;;
15936;SDS011;9163;48.818;8.976;2023-11-19T10:39:54;1.07;;;0.40;;
15936;SDS011;9163;48.818;8.976;2023-11-19T10:42:22;2.23;;;0.40;;
15936;SDS011;9163;48.818;8.976;2023-11-19T10:44:49;1.57;;;0.30;;
15936;SDS011;9163;48.818;8.976;2023-11-19T10:47:19;0.60;;;0.33;;
15936;SDS011;9163;48.818;8.976;2023-11-19T10:49:47;1.40;;;0.50;;
15936;SDS011;9163;48.818;8.976;2023-11-19T10:52:15;0.97;;;0.50;;
15936;SDS011;9163;48.818;8.976;2023-11-19T10:54:44;1.93;;;0.57;;
15936;SDS011;9163;48.818;8.976;2023-11-19T10:57:19;1.13;;;0.53;;
15936;SDS011;9163;48.818;8.976;2023-11-19T10:59:47;1.90;;;0.50;;
15936;SDS011;9163;48.818;8.976;2023-11-19T11:02:21;2.07;;;0.40;;
15936;SDS011;9163;48.818;8.976;2023-11-19T11:04:52;1.23;;;0.60;;
15936;SDS011;9163;48.818;8.976;2023-11-19T11:07:20;1.10;;;0.50;;
15936;SDS011;9163;48.818;8.976;2023-11-19T11:09:51;1.73;;;0.60;;
15936;SDS011;9163;48.818;8.976;2023-11-19T11:12:20;1.03;;;0.43;;
15936;SDS011;9163;48.818;8.976;2023-11-19T11:14:50;1.57;;;0.40;;
15936;SDS011;9163;48.818;8.976;2023-11-19T11:17:21;1.00;;;0.40;;
15936;SDS011;9163;48.818;8.976;2023-11-19T11:19:52;1.70;;;0.50;;
15936;SDS011;9163;48.818;8.976;2023-11-19T11:22:19;0.70;;;0.40;;
15936;SDS011;9163;48.818;8.976;2023-11-19T11:28:05;2.43;;;0.63;;
15936;SDS011;9163;48.818;8.976;2023-11-19T11:30:51;1.40;;;0.53;;
15936;SDS011;9163;48.818;8.976;2023-11-19T11:33:34;1.30;;;0.47;;
15936;SDS011;9163;48.818;8.976;2023-11-19T11:36:13;2.60;;;0.60;;
15936;SDS011;9163;48.818;8.976;2023-11-19T11:38:46;1.20;;;0.50;;
15936;SDS011;9163;48.818;8.976;2023-11-19T11:41:15;1.20;;;0.50;;
15936;SDS011;9163;48.818;8.976;2023-11-19T11:43:45;1.17;;;0.50;;
15936;SDS011;9163;48.818;8.976;2023-11-19T11:49:28;1.70;;;0.67;;
15936;SDS011;9163;48.818;8.976;2023-11-19T11:52:00;2.17;;;0.50;;
15936;SDS011;9163;48.818;8.976;2023-11-19T11:54:28;1.63;;;0.60;;
15936;SDS011;9163;48.818;8.976;2023-11-19T11:57:08;2.63;;;0.73;;
15936;SDS011;9163;48.818;8.976;2023-11-19T11:59:45;1.50;;;0.80;;
15936;SDS011;9163;48.818;8.976;2023-11-19T12:02:13;1.50;;;0.53;;
15936;SDS011;9163;48.818;8.976;2023-11-19T12:04:43;1.87;;;0.53;;
15936;SDS011;9163;48.818;8.976;2023-11-19T12:07:14;1.57;;;0.47;;
15936;SDS011;9163;48.818;8.976;2023-11-19T12:09:47;2.47;;;0.53;;
15936;SDS011;9163;48.818;8.976;2023-11-19T12:12:19;1.67;;;0.50;;
15936;SDS011;9163;48.818;8.976;2023-11-19T12:17:41;2.47;;;0.67;;
15936;SDS011;9163;48.818;8.976;2023-11-19T12:20:12;2.80;;;1.43;;
15936;SDS011;9163;48.818;8.976;2023-11-19T12:22:40;7.30;;;1.50;;
15936;SDS011;9163;48.818;8.976;2023-11-19T12:25:09;0.50;;;0.50;;
15936;SDS011;9163;48.818;8.976;2023-11-19T12:27:38;1.40;;;0.47;;
15936;SDS011;9163;48.818;8.976;2023-11-19T12:30:07;0.77;;;0.30;;
15936;SDS011;9163;48.818;8.976;2023-11-19T12:32:37;1.17;;;0.50;;
15936;SDS011;9163;48.818;8.976;2023-11-19T12:35:06;0.60;;;0.33;;
15936;SDS011;9163;48.818;8.976;2023-11-19T12:37:41;1.93;;;0.30;;
15936;SDS011;9163;48.818;8.976;2023-11-19T12:40:11;1.00;;;0.40;;
15936;SDS011;9163;48.818;8.976;2023-11-19T12:42:42;1.87;;;0.50;;
15936;SDS011;9163;48.818;8.976;2023-11-19T12:45:10;1.47;;;0.60;;
15936;SDS011;9163;48.818;8.976;2023-11-19T12:47:39;1.53;;;0.60;;
15936;SDS011;9163;48.818;8.976;2023-11-19T12:50:07;1.90;;;0.50;;
15936;SDS011;9163;48.818;8.976;2023-11-19T12:52:35;1.50;;;0.50;;
15936;SDS011;9163;48.818;8.976;2023-11-19T12:55:04;1.97;;;0.50;;
15936;SDS011;9163;48.818;8.976;2023-11-19T12:57:36;0.80;;;0.40;;
15936;SDS011;9163;48.818;8.976;2023-11-19T13:00:05;1.47;;;0.60;;
15936;SDS011;9163;48.818;8.976;2023-11-19T13:02:45;1.50;;;0.50;;
15936;SDS011;9163;48.818;8.976;2023-11-19T13:07:59;1.33;;;0.60;;
15936;SDS011;9163;48.818;8.976;2023-11-19T13:10:29;0.93;;;0.50;;
15936;SDS011;9163;48.818;8.976;2023-11-19T13:13:03;2.83;;;0.47;;
15936;SDS011;9163;48.818;8.976;2023-11-19T13:15:32;1.90;;;0.50;;
15936;SDS011;9163;48.818;8.976;2023-11-19T13:17:59;2.13;;;0.60;;
15936;SDS011;9163;48.818;8.976;2023-11-19T13:20:27;1.37;;;0.50;;
15936;SDS011;9163;48.818;8.976;2023-11-19T13:22:55;1.13;;;0.40;;
15936;SDS011;9163;48.818;8.976;2023-11-19T13:25:23;4.53;;;0.70;;
15936;SDS011;9163;48.818;8.976;2023-11-19T13:27:52;0.90;;;0.50;;
15936;SDS011;9163;48.818;8.976;2023-11-19T13:30:20;1.93;;;0.73;;
15936;SDS011;9163;48.818;8.976;2023-11-19T13:32:48;1.47;;;0.60;;
15936;SDS011;9163;48.818;8.976;2023-11-19T13:35:16;1.40;;;0.50;;
15936;SDS011;9163;48.818;8.976;2023-11-19T13:37:44;1.13;;;0.40;;
15936;SDS011;9163;48.818;8.976;2023-11-19T13:40:11;1.70;;;0.40;;
15936;SDS011;9163;48.818;8.976;2023-11-19T13:42:41;1.37;;;0.50;;
15936;SDS011;9163;48.818;8.976;2023-11-19T13:45:10;2.47;;;0.40;;
15936;SDS011;9163;48.818;8.976;2023-11-19T13:47:38;0.63;;;0.40;;
15936;SDS011;9163;48.818;8.976;2023-11-19T13:50:09;1.23;;;0.40;;
15936;SDS011;9163;48.818;8.976;2023-11-19T13:52:38;1.57;;;0.40;;
15936;SDS011;9163;48.818;8.976;2023-11-19T13:55:07;1.20;;;0.50;;
15936;SDS011;9163;48.818;8.976;2023-11-19T13:57:36;1.53;;;0.50;;
15936;SDS011;9163;48.818;8.976;2023-11-19T14:00:05;0.90;;;0.40;;
15936;SDS011;9163;48.818;8.976;2023-11-19T14:02:38;1.00;;;0.60;;
15936;SDS011;9163;48.818;8.976;2023-11-19T14:05:05;3.50;;;0.50;;
15936;SDS011;9163;48.818;8.976;2023-11-19T14:07:33;2.23;;;0.50;;
15936;SDS011;9163;48.818;8.976;2023-11-19T14:10:00;1.83;;;0.60;;
15936;SDS011;9163;48.818;8.976;2023-11-19T14:12:27;1.00;;;0.40;;
15936;SDS011;9163;48.818;8.976;2023-11-19T14:14:55;1.83;;;0.60;;
15936;SDS011;9163;48.818;8.976;2023-11-19T14:17:22;2.63;;;0.60;;
15936;SDS011;9163;48.818;8.976;2023-11-19T14:19:52;0.67;;;0.37;;
15936;SDS011;9163;48.818;8.976;2023-11-19T14:22:19;1.70;;;0.60;;
15936;SDS011;9163;48.818;8.976;2023-11-19T14:24:46;2.57;;;0.60;;
15936;SDS011;9163;48.818;8.976;2023-11-19T14:27:13;0.90;;;0.50;;
15936;SDS011;9163;48.818;8.976;2023-11-19T14:29:42;2.10;;;0.50;;
15936;SDS011;9163;48.818;8.976;2023-11-19T14:32:11;1.43;;;0.50;;
15936;SDS011;9163;48.818;8.976;2023-11-19T14:34:38;1.70;;;0.60;;
15936;SDS011;9163;48.818;8.976;2023-11-19T14:37:07;3.03;;;0.60;;
15936;SDS011;9163;48.818;8.976;2023-11-19T14:39:34;1.77;;;0.60;;
15936;SDS011;9163;48.818;8.976;2023-11-19T14:42:02;1.40;;;0.60;;
15936;SDS011;9163;48.818;8.976;2023-11-19T14:44:30;1.30;;;0.40;;
15936;SDS011;9163;48.818;8.976;2023-11-19T14:47:01;1.33;;;0.40;;
15936;SDS011;9163;48.818;8.976;2023-11-19T14:49:29;1.50;;;0.50;;
15936;SDS011;9163;48.818;8.976;2023-11-19T14:51:57;1.03;;;0.40;;
15936;SDS011;9163;48.818;8.976;2023-11-19T14:54:25;0.80;;;0.50;;
15936;SDS011;9163;48.818;8.976;2023-11-19T14:56:52;1.00;;;0.50;;
15936;SDS011;9163;48.818;8.976;2023-11-19T14:59:20;1.73;;;0.63;;
15936;SDS011;9163;48.818;8.976;2023-11-19T15:01:47;1.37;;;0.50;;
15936;SDS011;9163;48.818;8.976;2023-11-19T15:04:14;0.77;;;0.40;;
15936;SDS011;9163;48.818;8.976;2023-11-19T15:06:42;1.17;;;0.40;;
15936;SDS011;9163;48.818;8.976;2023-11-19T15:09:09;1.37;;;0.50;;
15936;SDS011;9163;48.818;8.976;2023-11-19T15:11:43;1.00;;;0.50;;
15936;SDS011;9163;48.818;8.976;2023-11-19T15:14:11;0.67;;;0.40;;
15936;SDS011;9163;48.818;8.976;2023-11-19T15:16:40;0.47;;;0.30;;
15936;SDS011;9163;48.818;8.976;2023-11-19T15:19:07;2.73;;;0.60;;
15936;SDS011;9163;48.818;8.976;2023-11-19T15:21:35;1.93;;;0.70;;